sensor_id;sensor_type;location;lat;lon;timestamp;P1;durP1;ratioP1;P2;durP2;ratioP2
12725;SDS011;6427;49.754;6.106;2023-04-21T00:02:13;18.30;;;12.67;;
12725;SDS011;6427;49.754;6.106;2023-04-21T00:04:40;18.87;;;13.03;;
12725;SDS011;6427;49.754;6.106;2023-04-21T00:07:08;18.63;;;12.93;;
12725;SDS011;6427;49.754;6.106;2023-04-21T00:09:36;18.67;;;13.67;;
12725;SDS011;6427;49.754;6.106;2023-04-21T00:12:04;19.50;;;16.42;;
12725;SDS011;6427;49.754;6.106;2023-04-21T00:14:31;22.62;;;18.17;;
12725;SDS011;6427;49.754;6.106;2023-04-21T00:16:59;19.53;;;14.30;;
12725;SDS011;6427;49.754;6.106;2023-04-21T00:19:27;21.03;;;13.90;;
12725;SDS011;6427;49.754;6.106;2023-04-21T00:21:54;18.23;;;13.23;;
12725;SDS011;6427;49.754;6.106;2023-04-21T00:24:22;21.00;;;13.93;;
12725;SDS011;6427;49.754;6.106;2023-04-21T00:26:49;19.50;;;14.00;;
12725;SDS011;6427;49.754;6.106;2023-04-21T00:29:18;17.73;;;13.53;;
12725;SDS011;6427;49.754;6.106;2023-04-21T00:31:45;20.27;;;13.97;;
12725;SDS011;6427;49.754;6.106;2023-04-21T00:34:13;17.83;;;13.23;;
12725;SDS011;6427;49.754;6.106;2023-04-21T00:36:40;21.30;;;14.17;;
12725;SDS011;6427;49.754;6.106;2023-04-21T00:39:08;19.52;;;16.52;;
12725;SDS011;6427;49.754;6.106;2023-04-21T00:41:35;21.50;;;17.45;;
12725;SDS011;6427;49.754;6.106;2023-04-21T00:44:03;20.63;;;14.40;;
12725;SDS011;6427;49.754;6.106;2023-04-21T00:46:31;19.20;;;13.70;;
12725;SDS011;6427;49.754;6.106;2023-04-21T00:48:58;21.63;;;14.10;;
12725;SDS011;6427;49.754;6.106;2023-04-21T00:51:27;18.20;;;13.13;;
12725;SDS011;6427;49.754;6.106;2023-04-21T00:53:55;19.27;;;13.27;;
12725;SDS011;6427;49.754;6.106;2023-04-21T00:56:22;17.13;;;13.57;;
12725;SDS011;6427;49.754;6.106;2023-04-21T00:58:50;19.33;;;14.40;;
12725;SDS011;6427;49.754;6.106;2023-04-21T01:01:17;18.37;;;13.03;;
12725;SDS011;6427;49.754;6.106;2023-04-21T01:03:45;20.50;;;14.07;;
12725;SDS011;6427;49.754;6.106;2023-04-21T01:06:12;19.03;;;13.00;;
12725;SDS011;6427;49.754;6.106;2023-04-21T01:08:41;20.00;;;13.17;;
12725;SDS011;6427;49.754;6.106;2023-04-21T01:11:11;20.53;;;13.50;;
12725;SDS011;6427;49.754;6.106;2023-04-21T01:13:39;18.60;;;12.83;;
12725;SDS011;6427;49.754;6.106;2023-04-21T01:16:07;18.67;;;13.17;;
12725;SDS011;6427;49.754;6.106;2023-04-21T01:18:34;18.80;;;12.97;;
12725;SDS011;6427;49.754;6.106;2023-04-21T01:21:06;18.40;;;13.03;;
12725;SDS011;6427;49.754;6.106;2023-04-21T01:23:33;19.37;;;13.33;;
12725;SDS011;6427;49.754;6.106;2023-04-21T01:26:01;17.27;;;12.13;;
12725;SDS011;6427;49.754;6.106;2023-04-21T01:28:29;17.40;;;12.50;;
12725;SDS011;6427;49.754;6.106;2023-04-21T01:30:57;18.10;;;12.33;;
12725;SDS011;6427;49.754;6.106;2023-04-21T01:33:24;17.30;;;12.43;;
12725;SDS011;6427;49.754;6.106;2023-04-21T01:35:52;16.83;;;11.50;;
12725;SDS011;6427;49.754;6.106;2023-04-21T01:38:20;16.17;;;11.87;;
12725;SDS011;6427;49.754;6.106;2023-04-21T01:40:49;18.70;;;12.60;;
12725;SDS011;6427;49.754;6.106;2023-04-21T01:43:16;21.30;;;14.43;;
12725;SDS011;6427;49.754;6.106;2023-04-21T01:45:43;20.53;;;14.30;;
12725;SDS011;6427;49.754;6.106;2023-04-21T01:48:11;21.00;;;14.17;;
12725;SDS011;6427;49.754;6.106;2023-04-21T01:50:38;21.30;;;15.33;;
12725;SDS011;6427;49.754;6.106;2023-04-21T01:53:06;20.03;;;14.27;;
12725;SDS011;6427;49.754;6.106;2023-04-21T01:55:34;23.07;;;14.63;;
12725;SDS011;6427;49.754;6.106;2023-04-21T01:58:01;21.10;;;13.97;;
12725;SDS011;6427;49.754;6.106;2023-04-21T02:00:29;20.07;;;14.00;;
12725;SDS011;6427;49.754;6.106;2023-04-21T02:02:57;21.83;;;14.23;;
12725;SDS011;6427;49.754;6.106;2023-04-21T02:05:24;18.97;;;12.83;;
12725;SDS011;6427;49.754;6.106;2023-04-21T02:07:52;17.97;;;12.43;;
12725;SDS011;6427;49.754;6.106;2023-04-21T02:10:20;19.67;;;13.80;;
12725;SDS011;6427;49.754;6.106;2023-04-21T02:12:48;20.13;;;13.63;;
12725;SDS011;6427;49.754;6.106;2023-04-21T02:15:16;19.23;;;13.07;;
12725;SDS011;6427;49.754;6.106;2023-04-21T02:17:43;19.83;;;13.77;;
12725;SDS011;6427;49.754;6.106;2023-04-21T02:20:11;20.08;;;16.05;;
12725;SDS011;6427;49.754;6.106;2023-04-21T02:22:38;19.83;;;14.03;;
12725;SDS011;6427;49.754;6.106;2023-04-21T02:25:06;18.20;;;13.07;;
12725;SDS011;6427;49.754;6.106;2023-04-21T02:27:34;19.33;;;13.37;;
12725;SDS011;6427;49.754;6.106;2023-04-21T02:30:02;18.33;;;12.33;;
12725;SDS011;6427;49.754;6.106;2023-04-21T02:32:29;19.93;;;13.73;;
12725;SDS011;6427;49.754;6.106;2023-04-21T02:34:57;24.33;;;18.60;;
12725;SDS011;6427;49.754;6.106;2023-04-21T02:37:25;19.50;;;13.67;;
12725;SDS011;6427;49.754;6.106;2023-04-21T02:39:53;22.53;;;14.70;;
12725;SDS011;6427;49.754;6.106;2023-04-21T02:42:20;21.70;;;14.40;;
12725;SDS011;6427;49.754;6.106;2023-04-21T02:44:48;20.90;;;14.37;;
12725;SDS011;6427;49.754;6.106;2023-04-21T02:47:16;22.67;;;14.67;;
12725;SDS011;6427;49.754;6.106;2023-04-21T02:49:43;22.13;;;14.90;;
12725;SDS011;6427;49.754;6.106;2023-04-21T02:52:11;23.73;;;18.60;;
12725;SDS011;6427;49.754;6.106;2023-04-21T02:54:38;24.77;;;15.43;;
12725;SDS011;6427;49.754;6.106;2023-04-21T02:57:07;20.67;;;14.43;;
12725;SDS011;6427;49.754;6.106;2023-04-21T02:59:35;21.03;;;14.30;;
12725;SDS011;6427;49.754;6.106;2023-04-21T03:02:03;22.40;;;14.17;;
12725;SDS011;6427;49.754;6.106;2023-04-21T03:04:31;19.83;;;13.93;;
12725;SDS011;6427;49.754;6.106;2023-04-21T03:06:58;21.57;;;14.27;;
12725;SDS011;6427;49.754;6.106;2023-04-21T03:09:26;19.00;;;13.67;;
12725;SDS011;6427;49.754;6.106;2023-04-21T03:11:53;19.20;;;13.17;;
12725;SDS011;6427;49.754;6.106;2023-04-21T03:14:21;22.83;;;15.33;;
12725;SDS011;6427;49.754;6.106;2023-04-21T03:16:49;21.97;;;14.53;;
12725;SDS011;6427;49.754;6.106;2023-04-21T03:19:17;21.03;;;13.83;;
12725;SDS011;6427;49.754;6.106;2023-04-21T03:21:44;22.00;;;14.03;;
12725;SDS011;6427;49.754;6.106;2023-04-21T03:24:12;24.63;;;19.12;;
12725;SDS011;6427;49.754;6.106;2023-04-21T03:26:40;22.20;;;16.00;;
12725;SDS011;6427;49.754;6.106;2023-04-21T03:29:07;23.80;;;14.53;;
12725;SDS011;6427;49.754;6.106;2023-04-21T03:31:35;23.33;;;15.33;;
12725;SDS011;6427;49.754;6.106;2023-04-21T03:34:02;19.37;;;13.47;;
12725;SDS011;6427;49.754;6.106;2023-04-21T03:36:30;25.62;;;19.17;;
12725;SDS011;6427;49.754;6.106;2023-04-21T03:38:58;23.87;;;16.30;;
12725;SDS011;6427;49.754;6.106;2023-04-21T03:41:26;20.47;;;13.67;;
12725;SDS011;6427;49.754;6.106;2023-04-21T03:43:53;17.93;;;12.73;;
12725;SDS011;6427;49.754;6.106;2023-04-21T03:46:21;19.77;;;13.80;;
12725;SDS011;6427;49.754;6.106;2023-04-21T03:48:49;20.07;;;13.53;;
12725;SDS011;6427;49.754;6.106;2023-04-21T03:51:17;21.73;;;14.07;;
12725;SDS011;6427;49.754;6.106;2023-04-21T03:53:44;19.23;;;12.83;;
12725;SDS011;6427;49.754;6.106;2023-04-21T03:56:12;18.67;;;13.03;;
12725;SDS011;6427;49.754;6.106;2023-04-21T03:58:40;19.03;;;11.93;;
12725;SDS011;6427;49.754;6.106;2023-04-21T04:01:08;19.53;;;12.63;;
12725;SDS011;6427;49.754;6.106;2023-04-21T04:03:36;19.03;;;12.93;;
12725;SDS011;6427;49.754;6.106;2023-04-21T04:06:03;20.77;;;13.33;;
12725;SDS011;6427;49.754;6.106;2023-04-21T04:08:32;18.23;;;12.20;;
12725;SDS011;6427;49.754;6.106;2023-04-21T04:10:59;22.37;;;13.93;;
12725;SDS011;6427;49.754;6.106;2023-04-21T04:13:28;21.03;;;12.80;;
12725;SDS011;6427;49.754;6.106;2023-04-21T04:15:56;18.67;;;12.20;;
12725;SDS011;6427;49.754;6.106;2023-04-21T04:18:23;19.67;;;12.40;;
12725;SDS011;6427;49.754;6.106;2023-04-21T04:20:51;20.73;;;12.83;;
12725;SDS011;6427;49.754;6.106;2023-04-21T04:23:19;22.77;;;17.27;;
12725;SDS011;6427;49.754;6.106;2023-04-21T04:25:46;18.20;;;13.77;;
12725;SDS011;6427;49.754;6.106;2023-04-21T04:28:14;21.53;;;13.30;;
12725;SDS011;6427;49.754;6.106;2023-04-21T04:30:42;20.58;;;16.42;;
12725;SDS011;6427;49.754;6.106;2023-04-21T04:33:09;23.30;;;15.63;;
12725;SDS011;6427;49.754;6.106;2023-04-21T04:35:37;20.43;;;13.97;;
12725;SDS011;6427;49.754;6.106;2023-04-21T04:38:05;23.83;;;15.00;;
12725;SDS011;6427;49.754;6.106;2023-04-21T04:40:32;21.92;;;16.95;;
12725;SDS011;6427;49.754;6.106;2023-04-21T04:43:00;23.42;;;18.42;;
12725;SDS011;6427;49.754;6.106;2023-04-21T04:45:28;23.07;;;15.90;;
12725;SDS011;6427;49.754;6.106;2023-04-21T04:47:56;24.43;;;14.73;;
12725;SDS011;6427;49.754;6.106;2023-04-21T04:50:24;23.77;;;15.43;;
12725;SDS011;6427;49.754;6.106;2023-04-21T04:52:51;25.27;;;15.70;;
12725;SDS011;6427;49.754;6.106;2023-04-21T04:55:19;23.40;;;15.33;;
12725;SDS011;6427;49.754;6.106;2023-04-21T04:57:47;23.23;;;14.67;;
12725;SDS011;6427;49.754;6.106;2023-04-21T05:00:15;22.77;;;14.43;;
12725;SDS011;6427;49.754;6.106;2023-04-21T05:02:42;23.93;;;15.30;;
12725;SDS011;6427;49.754;6.106;2023-04-21T05:05:10;24.57;;;15.17;;
12725;SDS011;6427;49.754;6.106;2023-04-21T05:07:38;25.33;;;15.13;;
12725;SDS011;6427;49.754;6.106;2023-04-21T05:10:05;23.37;;;14.97;;
12725;SDS011;6427;49.754;6.106;2023-04-21T05:12:33;28.50;;;20.17;;
12725;SDS011;6427;49.754;6.106;2023-04-21T05:15:01;25.03;;;16.87;;
12725;SDS011;6427;49.754;6.106;2023-04-21T05:17:29;25.13;;;15.23;;
12725;SDS011;6427;49.754;6.106;2023-04-21T05:19:56;24.93;;;15.97;;
12725;SDS011;6427;49.754;6.106;2023-04-21T05:22:24;26.10;;;16.03;;
12725;SDS011;6427;49.754;6.106;2023-04-21T05:24:52;25.27;;;16.10;;
12725;SDS011;6427;49.754;6.106;2023-04-21T05:27:19;26.43;;;16.27;;
12725;SDS011;6427;49.754;6.106;2023-04-21T05:29:46;23.53;;;14.57;;
12725;SDS011;6427;49.754;6.106;2023-04-21T05:32:14;25.20;;;15.80;;
12725;SDS011;6427;49.754;6.106;2023-04-21T05:34:42;22.93;;;15.00;;
12725;SDS011;6427;49.754;6.106;2023-04-21T05:37:10;26.83;;;15.93;;
12725;SDS011;6427;49.754;6.106;2023-04-21T05:39:38;25.23;;;15.30;;
12725;SDS011;6427;49.754;6.106;2023-04-21T05:42:07;25.93;;;15.17;;
12725;SDS011;6427;49.754;6.106;2023-04-21T05:44:33;26.20;;;16.33;;
12725;SDS011;6427;49.754;6.106;2023-04-21T05:47:02;27.40;;;16.40;;
12725;SDS011;6427;49.754;6.106;2023-04-21T05:49:28;27.40;;;16.23;;
12725;SDS011;6427;49.754;6.106;2023-04-21T05:51:57;27.03;;;16.40;;
12725;SDS011;6427;49.754;6.106;2023-04-21T05:54:24;25.10;;;15.73;;
12725;SDS011;6427;49.754;6.106;2023-04-21T05:56:52;27.83;;;16.27;;
12725;SDS011;6427;49.754;6.106;2023-04-21T05:59:19;23.10;;;15.10;;
12725;SDS011;6427;49.754;6.106;2023-04-21T06:01:48;27.80;;;17.07;;
12725;SDS011;6427;49.754;6.106;2023-04-21T06:04:16;26.53;;;15.60;;
12725;SDS011;6427;49.754;6.106;2023-04-21T06:06:44;24.10;;;15.70;;
12725;SDS011;6427;49.754;6.106;2023-04-21T06:09:11;26.90;;;16.03;;
12725;SDS011;6427;49.754;6.106;2023-04-21T06:11:40;27.47;;;16.33;;
12725;SDS011;6427;49.754;6.106;2023-04-21T06:14:07;25.43;;;16.20;;
12725;SDS011;6427;49.754;6.106;2023-04-21T06:16:34;26.53;;;16.07;;
12725;SDS011;6427;49.754;6.106;2023-04-21T06:19:02;22.63;;;14.53;;
12725;SDS011;6427;49.754;6.106;2023-04-21T06:21:30;26.67;;;15.80;;
12725;SDS011;6427;49.754;6.106;2023-04-21T06:23:58;24.53;;;15.07;;
12725;SDS011;6427;49.754;6.106;2023-04-21T06:26:25;23.23;;;14.97;;
12725;SDS011;6427;49.754;6.106;2023-04-21T06:28:53;22.80;;;15.57;;
12725;SDS011;6427;49.754;6.106;2023-04-21T06:31:21;24.17;;;14.73;;
12725;SDS011;6427;49.754;6.106;2023-04-21T06:33:49;23.00;;;14.50;;
12725;SDS011;6427;49.754;6.106;2023-04-21T06:36:16;21.33;;;13.90;;
12725;SDS011;6427;49.754;6.106;2023-04-21T06:38:44;22.00;;;14.23;;
12725;SDS011;6427;49.754;6.106;2023-04-21T06:41:12;22.87;;;14.23;;
12725;SDS011;6427;49.754;6.106;2023-04-21T06:43:39;25.33;;;13.93;;
12725;SDS011;6427;49.754;6.106;2023-04-21T06:46:07;21.30;;;13.60;;
12725;SDS011;6427;49.754;6.106;2023-04-21T06:48:35;21.57;;;13.83;;
12725;SDS011;6427;49.754;6.106;2023-04-21T06:51:03;21.70;;;13.70;;
12725;SDS011;6427;49.754;6.106;2023-04-21T06:53:30;17.93;;;12.63;;
12725;SDS011;6427;49.754;6.106;2023-04-21T06:55:58;22.47;;;14.33;;
12725;SDS011;6427;49.754;6.106;2023-04-21T06:58:25;22.40;;;12.73;;
12725;SDS011;6427;49.754;6.106;2023-04-21T07:00:53;19.97;;;13.23;;
12725;SDS011;6427;49.754;6.106;2023-04-21T07:03:20;19.63;;;12.87;;
12725;SDS011;6427;49.754;6.106;2023-04-21T07:05:48;19.23;;;12.97;;
12725;SDS011;6427;49.754;6.106;2023-04-21T07:08:16;17.03;;;11.17;;
12725;SDS011;6427;49.754;6.106;2023-04-21T07:10:44;16.80;;;11.63;;
12725;SDS011;6427;49.754;6.106;2023-04-21T07:13:11;16.47;;;11.23;;
12725;SDS011;6427;49.754;6.106;2023-04-21T07:15:39;16.25;;;12.50;;
12725;SDS011;6427;49.754;6.106;2023-04-21T07:18:06;16.93;;;11.07;;
12725;SDS011;6427;49.754;6.106;2023-04-21T07:20:34;15.53;;;10.10;;
12725;SDS011;6427;49.754;6.106;2023-04-21T07:23:01;14.40;;;10.10;;
12725;SDS011;6427;49.754;6.106;2023-04-21T07:25:29;13.27;;;9.60;;
12725;SDS011;6427;49.754;6.106;2023-04-21T07:27:57;13.63;;;9.57;;
12725;SDS011;6427;49.754;6.106;2023-04-21T07:30:25;14.57;;;9.60;;
12725;SDS011;6427;49.754;6.106;2023-04-21T07:32:52;12.17;;;8.87;;
12725;SDS011;6427;49.754;6.106;2023-04-21T07:35:20;13.70;;;9.67;;
12725;SDS011;6427;49.754;6.106;2023-04-21T07:37:48;14.20;;;9.83;;
12725;SDS011;6427;49.754;6.106;2023-04-21T07:40:16;13.53;;;9.00;;
12725;SDS011;6427;49.754;6.106;2023-04-21T07:42:43;11.83;;;8.53;;
12725;SDS011;6427;49.754;6.106;2023-04-21T07:45:12;12.17;;;9.13;;
12725;SDS011;6427;49.754;6.106;2023-04-21T07:47:39;12.70;;;9.17;;
12725;SDS011;6427;49.754;6.106;2023-04-21T07:50:07;14.03;;;9.43;;
12725;SDS011;6427;49.754;6.106;2023-04-21T07:52:35;14.03;;;8.97;;
12725;SDS011;6427;49.754;6.106;2023-04-21T07:55:02;13.47;;;9.70;;
12725;SDS011;6427;49.754;6.106;2023-04-21T07:57:30;11.85;;;9.55;;
12725;SDS011;6427;49.754;6.106;2023-04-21T07:59:57;12.30;;;8.43;;
12725;SDS011;6427;49.754;6.106;2023-04-21T08:02:25;11.53;;;8.47;;
12725;SDS011;6427;49.754;6.106;2023-04-21T08:04:52;12.40;;;9.70;;
12725;SDS011;6427;49.754;6.106;2023-04-21T08:07:21;11.23;;;8.27;;
12725;SDS011;6427;49.754;6.106;2023-04-21T08:09:48;9.23;;;7.47;;
12725;SDS011;6427;49.754;6.106;2023-04-21T08:12:16;10.57;;;7.77;;
12725;SDS011;6427;49.754;6.106;2023-04-21T08:14:43;10.53;;;7.90;;
12725;SDS011;6427;49.754;6.106;2023-04-21T08:17:11;9.77;;;7.40;;
12725;SDS011;6427;49.754;6.106;2023-04-21T08:19:38;11.50;;;8.07;;
12725;SDS011;6427;49.754;6.106;2023-04-21T08:22:06;10.97;;;7.70;;
12725;SDS011;6427;49.754;6.106;2023-04-21T08:24:34;9.47;;;7.67;;
12725;SDS011;6427;49.754;6.106;2023-04-21T08:27:01;11.10;;;9.20;;
12725;SDS011;6427;49.754;6.106;2023-04-21T08:29:29;9.80;;;7.70;;
12725;SDS011;6427;49.754;6.106;2023-04-21T08:31:56;10.30;;;8.75;;
12725;SDS011;6427;49.754;6.106;2023-04-21T08:34:24;10.40;;;7.53;;
12725;SDS011;6427;49.754;6.106;2023-04-21T08:36:52;10.67;;;8.00;;
12725;SDS011;6427;49.754;6.106;2023-04-21T08:39:20;10.47;;;7.27;;
12725;SDS011;6427;49.754;6.106;2023-04-21T08:41:48;10.00;;;7.47;;
12725;SDS011;6427;49.754;6.106;2023-04-21T08:44:16;8.87;;;7.40;;
12725;SDS011;6427;49.754;6.106;2023-04-21T08:46:47;8.77;;;6.27;;
12725;SDS011;6427;49.754;6.106;2023-04-21T08:49:18;9.03;;;6.73;;
12725;SDS011;6427;49.754;6.106;2023-04-21T08:51:46;10.67;;;7.37;;
12725;SDS011;6427;49.754;6.106;2023-04-21T08:54:13;9.27;;;6.77;;
12725;SDS011;6427;49.754;6.106;2023-04-21T08:56:40;9.80;;;6.43;;
12725;SDS011;6427;49.754;6.106;2023-04-21T08:59:08;9.48;;;7.80;;
12725;SDS011;6427;49.754;6.106;2023-04-21T09:04:30;10.27;;;8.80;;
12725;SDS011;6427;49.754;6.106;2023-04-21T09:06:58;10.63;;;7.97;;
12725;SDS011;6427;49.754;6.106;2023-04-21T09:09:25;10.93;;;8.27;;
12725;SDS011;6427;49.754;6.106;2023-04-21T09:11:53;12.07;;;8.20;;
12725;SDS011;6427;49.754;6.106;2023-04-21T09:14:33;14.40;;;7.70;;
12725;SDS011;6427;49.754;6.106;2023-04-21T09:17:01;11.23;;;8.45;;
12725;SDS011;6427;49.754;6.106;2023-04-21T09:19:28;11.23;;;8.00;;
12725;SDS011;6427;49.754;6.106;2023-04-21T09:21:55;10.07;;;7.97;;
12725;SDS011;6427;49.754;6.106;2023-04-21T09:24:23;11.17;;;7.47;;
12725;SDS011;6427;49.754;6.106;2023-04-21T09:26:51;9.90;;;6.70;;
12725;SDS011;6427;49.754;6.106;2023-04-21T09:29:21;8.57;;;6.40;;
12725;SDS011;6427;49.754;6.106;2023-04-21T09:31:48;7.93;;;6.13;;
12725;SDS011;6427;49.754;6.106;2023-04-21T09:34:17;14.67;;;7.13;;
12725;SDS011;6427;49.754;6.106;2023-04-21T09:36:47;7.73;;;6.00;;
12725;SDS011;6427;49.754;6.106;2023-04-21T09:39:14;8.65;;;7.53;;
12725;SDS011;6427;49.754;6.106;2023-04-21T09:41:42;6.17;;;5.27;;
12725;SDS011;6427;49.754;6.106;2023-04-21T09:44:09;7.33;;;5.60;;
12725;SDS011;6427;49.754;6.106;2023-04-21T09:46:38;7.60;;;5.37;;
12725;SDS011;6427;49.754;6.106;2023-04-21T09:49:05;8.30;;;5.60;;
12725;SDS011;6427;49.754;6.106;2023-04-21T09:51:33;7.07;;;5.70;;
12725;SDS011;6427;49.754;6.106;2023-04-21T09:54:03;7.30;;;5.90;;
12725;SDS011;6427;49.754;6.106;2023-04-21T09:56:29;7.33;;;5.30;;
12725;SDS011;6427;49.754;6.106;2023-04-21T09:58:57;7.90;;;6.03;;
12725;SDS011;6427;49.754;6.106;2023-04-21T10:01:25;6.93;;;5.80;;
12725;SDS011;6427;49.754;6.106;2023-04-21T10:03:51;8.93;;;6.20;;
12725;SDS011;6427;49.754;6.106;2023-04-21T10:06:20;6.00;;;4.70;;
12725;SDS011;6427;49.754;6.106;2023-04-21T10:08:48;6.00;;;4.43;;
12725;SDS011;6427;49.754;6.106;2023-04-21T10:11:15;4.57;;;4.07;;
12725;SDS011;6427;49.754;6.106;2023-04-21T10:13:43;5.13;;;4.33;;
12725;SDS011;6427;49.754;6.106;2023-04-21T10:16:11;5.33;;;4.10;;
12725;SDS011;6427;49.754;6.106;2023-04-21T10:18:43;6.73;;;4.23;;
12725;SDS011;6427;49.754;6.106;2023-04-21T10:21:10;7.23;;;3.93;;
12725;SDS011;6427;49.754;6.106;2023-04-21T10:23:44;5.83;;;3.97;;
12725;SDS011;6427;49.754;6.106;2023-04-21T10:26:18;5.47;;;4.37;;
12725;SDS011;6427;49.754;6.106;2023-04-21T10:28:55;6.23;;;4.63;;
12725;SDS011;6427;49.754;6.106;2023-04-21T10:36:41;6.62;;;4.85;;
12725;SDS011;6427;49.754;6.106;2023-04-21T10:39:24;6.33;;;4.37;;
12725;SDS011;6427;49.754;6.106;2023-04-21T10:41:52;6.23;;;3.77;;
12725;SDS011;6427;49.754;6.106;2023-04-21T10:44:18;4.60;;;3.57;;
12725;SDS011;6427;49.754;6.106;2023-04-21T10:46:50;5.20;;;3.63;;
12725;SDS011;6427;49.754;6.106;2023-04-21T10:49:22;8.20;;;3.97;;
12725;SDS011;6427;49.754;6.106;2023-04-21T10:54:25;6.83;;;3.80;;
12725;SDS011;6427;49.754;6.106;2023-04-21T10:56:53;4.27;;;3.83;;
12725;SDS011;6427;49.754;6.106;2023-04-21T10:59:22;5.40;;;3.57;;
12725;SDS011;6427;49.754;6.106;2023-04-21T11:01:49;4.20;;;3.60;;
12725;SDS011;6427;49.754;6.106;2023-04-21T11:04:17;5.63;;;3.33;;
12725;SDS011;6427;49.754;6.106;2023-04-21T11:07:04;3.57;;;3.10;;
12725;SDS011;6427;49.754;6.106;2023-04-21T11:09:36;4.60;;;3.00;;
12725;SDS011;6427;49.754;6.106;2023-04-21T11:12:04;5.07;;;3.00;;
12725;SDS011;6427;49.754;6.106;2023-04-21T11:14:31;4.18;;;3.35;;
12725;SDS011;6427;49.754;6.106;2023-04-21T11:16:58;3.67;;;3.07;;
12725;SDS011;6427;49.754;6.106;2023-04-21T11:19:27;3.33;;;2.90;;
12725;SDS011;6427;49.754;6.106;2023-04-21T11:21:54;3.27;;;2.90;;
12725;SDS011;6427;49.754;6.106;2023-04-21T11:24:23;4.07;;;2.70;;
12725;SDS011;6427;49.754;6.106;2023-04-21T11:26:51;4.73;;;2.83;;
12725;SDS011;6427;49.754;6.106;2023-04-21T11:29:19;3.07;;;2.67;;
12725;SDS011;6427;49.754;6.106;2023-04-21T11:31:47;4.53;;;2.77;;
12725;SDS011;6427;49.754;6.106;2023-04-21T11:34:15;3.73;;;2.40;;
12725;SDS011;6427;49.754;6.106;2023-04-21T11:36:43;3.10;;;2.63;;
12725;SDS011;6427;49.754;6.106;2023-04-21T11:39:11;4.73;;;2.43;;
12725;SDS011;6427;49.754;6.106;2023-04-21T11:41:39;3.87;;;2.80;;
12725;SDS011;6427;49.754;6.106;2023-04-21T11:44:05;4.70;;;2.70;;
12725;SDS011;6427;49.754;6.106;2023-04-21T11:46:34;4.00;;;2.90;;
12725;SDS011;6427;49.754;6.106;2023-04-21T11:49:05;4.22;;;2.90;;
12725;SDS011;6427;49.754;6.106;2023-04-21T11:51:35;2.93;;;2.47;;
12725;SDS011;6427;49.754;6.106;2023-04-21T11:54:05;2.70;;;2.23;;
12725;SDS011;6427;49.754;6.106;2023-04-21T11:56:37;3.37;;;2.30;;
12725;SDS011;6427;49.754;6.106;2023-04-21T12:01:46;3.80;;;2.33;;
12725;SDS011;6427;49.754;6.106;2023-04-21T12:04:12;2.73;;;2.20;;
12725;SDS011;6427;49.754;6.106;2023-04-21T12:06:36;2.30;;;1.90;;
12725;SDS011;6427;49.754;6.106;2023-04-21T12:09:03;3.07;;;2.27;;
12725;SDS011;6427;49.754;6.106;2023-04-21T12:11:31;2.13;;;1.90;;
12725;SDS011;6427;49.754;6.106;2023-04-21T12:13:58;2.00;;;1.73;;
12725;SDS011;6427;49.754;6.106;2023-04-21T12:16:26;2.77;;;1.97;;
12725;SDS011;6427;49.754;6.106;2023-04-21T12:18:54;2.83;;;1.60;;
12725;SDS011;6427;49.754;6.106;2023-04-21T12:21:27;1.93;;;1.70;;
12725;SDS011;6427;49.754;6.106;2023-04-21T12:23:54;2.83;;;1.70;;
12725;SDS011;6427;49.754;6.106;2023-04-21T12:26:21;2.97;;;1.90;;
12725;SDS011;6427;49.754;6.106;2023-04-21T12:28:49;3.23;;;1.90;;
12725;SDS011;6427;49.754;6.106;2023-04-21T12:31:17;3.30;;;1.77;;
12725;SDS011;6427;49.754;6.106;2023-04-21T12:33:45;2.63;;;2.03;;
12725;SDS011;6427;49.754;6.106;2023-04-21T12:36:12;6.17;;;2.00;;
12725;SDS011;6427;49.754;6.106;2023-04-21T12:38:40;3.00;;;2.20;;
12725;SDS011;6427;49.754;6.106;2023-04-21T12:41:07;2.67;;;2.00;;
12725;SDS011;6427;49.754;6.106;2023-04-21T12:43:36;2.30;;;2.10;;
12725;SDS011;6427;49.754;6.106;2023-04-21T12:46:03;1.80;;;1.70;;
12725;SDS011;6427;49.754;6.106;2023-04-21T12:48:31;4.35;;;2.00;;
12725;SDS011;6427;49.754;6.106;2023-04-21T12:50:59;3.33;;;2.30;;
12725;SDS011;6427;49.754;6.106;2023-04-21T12:53:27;3.83;;;2.10;;
12725;SDS011;6427;49.754;6.106;2023-04-21T12:55:55;2.63;;;2.23;;
12725;SDS011;6427;49.754;6.106;2023-04-21T12:58:23;2.93;;;2.23;;
12725;SDS011;6427;49.754;6.106;2023-04-21T13:00:51;2.53;;;2.33;;
12725;SDS011;6427;49.754;6.106;2023-04-21T13:03:18;3.87;;;2.50;;
12725;SDS011;6427;49.754;6.106;2023-04-21T13:05:47;3.33;;;2.47;;
12725;SDS011;6427;49.754;6.106;2023-04-21T13:08:14;2.67;;;2.23;;
12725;SDS011;6427;49.754;6.106;2023-04-21T13:10:42;3.08;;;2.40;;
12725;SDS011;6427;49.754;6.106;2023-04-21T13:13:09;4.80;;;2.50;;
12725;SDS011;6427;49.754;6.106;2023-04-21T13:15:38;7.20;;;3.73;;
12725;SDS011;6427;49.754;6.106;2023-04-21T13:18:05;4.90;;;3.47;;
12725;SDS011;6427;49.754;6.106;2023-04-21T13:20:33;4.70;;;2.93;;
12725;SDS011;6427;49.754;6.106;2023-04-21T13:23:01;3.10;;;2.77;;
12725;SDS011;6427;49.754;6.106;2023-04-21T13:25:29;3.07;;;2.60;;
12725;SDS011;6427;49.754;6.106;2023-04-21T13:27:56;4.90;;;3.30;;
12725;SDS011;6427;49.754;6.106;2023-04-21T13:30:24;3.60;;;3.00;;
12725;SDS011;6427;49.754;6.106;2023-04-21T13:32:51;3.37;;;2.80;;
12725;SDS011;6427;49.754;6.106;2023-04-21T13:35:19;3.67;;;2.80;;
12725;SDS011;6427;49.754;6.106;2023-04-21T13:37:46;4.47;;;2.90;;
12725;SDS011;6427;49.754;6.106;2023-04-21T13:40:14;6.13;;;2.77;;
12725;SDS011;6427;49.754;6.106;2023-04-21T13:42:41;3.73;;;2.67;;
12725;SDS011;6427;49.754;6.106;2023-04-21T13:45:10;3.80;;;2.90;;
12725;SDS011;6427;49.754;6.106;2023-04-21T13:47:37;5.67;;;2.83;;
12725;SDS011;6427;49.754;6.106;2023-04-21T13:50:05;3.57;;;3.23;;
12725;SDS011;6427;49.754;6.106;2023-04-21T13:52:33;4.27;;;2.80;;
12725;SDS011;6427;49.754;6.106;2023-04-21T13:55:01;3.30;;;3.00;;
12725;SDS011;6427;49.754;6.106;2023-04-21T13:57:29;3.50;;;2.80;;
12725;SDS011;6427;49.754;6.106;2023-04-21T13:59:56;3.03;;;2.73;;
12725;SDS011;6427;49.754;6.106;2023-04-21T14:02:24;3.13;;;2.67;;
12725;SDS011;6427;49.754;6.106;2023-04-21T14:04:52;5.80;;;2.87;;
12725;SDS011;6427;49.754;6.106;2023-04-21T14:07:20;4.57;;;2.90;;
12725;SDS011;6427;49.754;6.106;2023-04-21T14:09:48;5.78;;;3.53;;
12725;SDS011;6427;49.754;6.106;2023-04-21T14:12:15;9.20;;;3.57;;
12725;SDS011;6427;49.754;6.106;2023-04-21T14:14:42;3.27;;;2.87;;
12725;SDS011;6427;49.754;6.106;2023-04-21T14:17:11;3.30;;;2.70;;
12725;SDS011;6427;49.754;6.106;2023-04-21T14:19:38;3.40;;;2.72;;
12725;SDS011;6427;49.754;6.106;2023-04-21T14:22:06;4.87;;;2.10;;
12725;SDS011;6427;49.754;6.106;2023-04-21T14:24:33;2.93;;;2.00;;
12725;SDS011;6427;49.754;6.106;2023-04-21T14:27:01;2.33;;;2.13;;
12725;SDS011;6427;49.754;6.106;2023-04-21T14:29:29;2.73;;;1.70;;
12725;SDS011;6427;49.754;6.106;2023-04-21T14:31:57;2.17;;;1.97;;
12725;SDS011;6427;49.754;6.106;2023-04-21T14:34:25;2.57;;;1.70;;
12725;SDS011;6427;49.754;6.106;2023-04-21T14:36:53;1.77;;;1.60;;
12725;SDS011;6427;49.754;6.106;2023-04-21T14:39:22;1.60;;;1.50;;
12725;SDS011;6427;49.754;6.106;2023-04-21T14:41:49;1.97;;;1.60;;
12725;SDS011;6427;49.754;6.106;2023-04-21T14:44:17;4.87;;;1.80;;
12725;SDS011;6427;49.754;6.106;2023-04-21T14:46:44;1.43;;;1.33;;
12725;SDS011;6427;49.754;6.106;2023-04-21T14:49:12;2.27;;;1.53;;
12725;SDS011;6427;49.754;6.106;2023-04-21T14:51:40;3.10;;;1.57;;
12725;SDS011;6427;49.754;6.106;2023-04-21T14:54:08;3.67;;;1.47;;
12725;SDS011;6427;49.754;6.106;2023-04-21T14:56:35;1.37;;;1.10;;
12725;SDS011;6427;49.754;6.106;2023-04-21T14:59:03;1.13;;;1.00;;
12725;SDS011;6427;49.754;6.106;2023-04-21T15:01:30;1.85;;;1.10;;
12725;SDS011;6427;49.754;6.106;2023-04-21T15:03:58;1.53;;;1.13;;